Bookmark and Share
Track history (hours):
 

M. Luther

More information available from US FCC via Universal Licensing System and Coast Guard Vessel Documentation Center.

Last reported at 2014-Apr-22 16:49 UTC. Time now 2014-Apr-24 09:22 UTC.
Position N 47°33' W 122°21'.

Length 28 m; draft 4.1 m.

Type: Tow > 200 m length. MMSI: 367070410.

NotesDate/timePositionNaut miles runAvg speedWind from/ knotsBaromVisibWave heightAir tempDewpointWater temp
2014-Apr-22 16:49N 47°33' W 122°21'0 0.0
2014-Apr-22 16:34N 47°33' W 122°21'0 0.0
2014-Apr-22 16:25N 47°33' W 122°21'2 2.1
2014-Apr-22 15:33N 47°35' W 122°22'1 3.7
2014-Apr-22 15:24N 47°36' W 122°22'1 1.3
2014-Apr-22 14:33N 47°36' W 122°23'0 3.2
2014-Apr-22 14:29N 47°36' W 122°24'5 5.3
2014-Apr-22 13:33N 47°40' W 122°28'1 7.2
2014-Apr-22 13:29N 47°40' W 122°28'7 7.5
2014-Apr-22 12:33N 47°47' W 122°28'1 7.4
2014-Apr-22 12:29N 47°48' W 122°28'6 6.6
2014-Apr-22 11:33N 47°54' W 122°30'1 5.5
2014-Apr-22 11:22N 47°55' W 122°31'4 5.4
2014-Apr-22 10:33N 47°58' W 122°36'5 5.5
2014-Apr-22 09:33N 48°03' W 122°39'5 4.9
2014-Apr-22 08:29N 48°07' W 122°42'6 6.2
2014-Apr-22 07:33N 48°12' W 122°48'7 6.9
2014-Apr-22 06:33N 48°19' W 122°48'6 6.0
2014-Apr-22 05:30N 48°25' W 122°45'5 5.1
2014-Apr-22 04:33N 48°29' W 122°45'4 4.0
2014-Apr-22 03:33N 48°33' W 122°45'4 4.4
2014-Apr-22 02:33N 48°38' W 122°44'5 5.4
2014-Apr-22 01:33N 48°43' W 122°46'7 6.8
2014-Apr-22 00:33N 48°47' W 122°54'7 7.2
2014-Apr-21 23:33N 48°51' W 123°03'8 7.6
2014-Apr-21 22:33N 48°56' W 123°12'8 7.6
2014-Apr-21 21:33N 49°02' W 123°20'5 5.5
2014-Apr-21 20:33N 49°07' W 123°16'6 6.1
2014-Apr-21 19:33N 49°07' W 123°07'5 4.9
2014-Apr-21 18:29N 49°09' W 123°00'0 0.0
2014-Apr-21 17:32N 49°09' W 123°00'0 0.0
2014-Apr-21 16:32N 49°09' W 123°00'0 0.0
2014-Apr-21 15:29N 49°09' W 123°00'0 0.0
2014-Apr-21 14:32N 49°09' W 123°00'0 0.0
2014-Apr-21 13:32N 49°09' W 123°00'0 0.0
2014-Apr-21 12:32N 49°09' W 123°00'0 0.0
2014-Apr-21 11:31N 49°09' W 123°00'0 0.0
2014-Apr-21 10:31N 49°09' W 123°00'0 0.0
2014-Apr-21 09:31N 49°09' W 123°00'0 0.0
2014-Apr-21 08:31N 49°09' W 123°00'0 0.0
2014-Apr-21 07:31N 49°09' W 123°00'0 0.0
2014-Apr-21 06:31N 49°09' W 123°00'0 0.0
2014-Apr-21 05:31N 49°09' W 123°00'0 0.0
2014-Apr-21 04:31N 49°09' W 123°00'0 0.0
2014-Apr-21 03:31N 49°09' W 123°00'0 0.0
2014-Apr-21 02:31N 49°09' W 123°00'0 0.0
2014-Apr-21 01:31N 49°09' W 123°00'0 0.0
2014-Apr-21 00:31N 49°09' W 123°00'0 0.0
2014-Apr-20 23:31N 49°09' W 123°00'0 0.0
2014-Apr-20 22:28N 49°09' W 123°00'0 0.0
2014-Apr-20 21:31N 49°09' W 123°00'0 0.0
2014-Apr-20 20:31N 49°09' W 123°00'0 0.0
2014-Apr-20 19:31N 49°09' W 123°00'0 0.0
2014-Apr-20 18:28N 49°09' W 123°00'0 0.0
2014-Apr-20 17:31N 49°09' W 123°00'0 0.0
2014-Apr-20 16:31N 49°09' W 123°00'0 0.0
2014-Apr-20 15:31N 49°09' W 123°00'0 0.0
2014-Apr-20 14:31N 49°09' W 123°00'0 0.0
2014-Apr-20 13:31N 49°09' W 123°00'0 0.0
2014-Apr-20 12:31N 49°09' W 123°00'0 0.0
2014-Apr-20 11:31N 49°09' W 123°00'0 0.0
2014-Apr-20 10:31N 49°09' W 123°00'0 0.0
2014-Apr-20 09:31N 49°09' W 123°00'0 0.0
2014-Apr-20 08:28N 49°09' W 123°00'0 0.0
2014-Apr-20 07:31N 49°09' W 123°00'0 0.0
2014-Apr-20 06:31N 49°09' W 123°00'0 0.0
2014-Apr-20 05:31N 49°09' W 123°00'0 0.0
2014-Apr-20 04:31N 49°09' W 123°00'0 0.0
2014-Apr-20 03:31N 49°09' W 123°00'0 0.0
2014-Apr-20 02:31N 49°09' W 123°00'0 0.0
2014-Apr-20 01:34N 49°09' W 123°00'0 0.0
2014-Apr-20 00:33N 49°09' W 123°00'0 0.0
2014-Apr-19 23:34N 49°09' W 123°00'0 0.0
2014-Apr-19 22:33N 49°09' W 123°00'0 0.0
2014-Apr-19 21:33N 49°09' W 123°00'0 0.0
2014-Apr-19 20:30N 49°09' W 123°00'0 0.0
2014-Apr-19 19:33N 49°09' W 123°00'0 0.0
2014-Apr-19 18:33N 49°09' W 123°00'0 0.0
2014-Apr-19 17:33N 49°09' W 123°00'0 0.0
2014-Apr-19 16:24N 49°09' W 123°00'0 0.0
2014-Apr-19 15:30N 49°09' W 123°00'0 0.0
2014-Apr-19 14:27N 49°09' W 123°00'0 0.0
2014-Apr-19 13:30N 49°09' W 123°00'0 0.0
2014-Apr-19 12:33N 49°09' W 123°00'0 0.0
2014-Apr-19 11:33N 49°09' W 123°00'0 0.0
2014-Apr-19 10:33N 49°09' W 123°00'0 0.0
2014-Apr-19 09:30N 49°09' W 123°00'0 0.0
2014-Apr-19 08:33N 49°09' W 123°00'0 0.0
2014-Apr-19 07:30N 49°09' W 123°00'0 0.0
2014-Apr-19 06:30N 49°09' W 123°00'0 0.0
2014-Apr-19 05:30N 49°09' W 123°00'0 0.0
2014-Apr-19 04:24N 49°09' W 123°00'0 0.0
2014-Apr-19 03:30N 49°09' W 123°00'0 0.0
2014-Apr-19 02:18N 49°09' W 123°00'0 0.0
2014-Apr-19 01:30N 49°09' W 123°00'0 0.0
2014-Apr-19 00:24N 49°09' W 123°00'0 0.0
2014-Apr-18 23:30N 49°09' W 123°00'0 0.0
2014-Apr-18 22:30N 49°09' W 123°00'0 0.0
2014-Apr-18 21:33N 49°09' W 123°00'0 0.0
2014-Apr-18 20:30N 49°09' W 123°00'0 0.1
2014-Apr-18 19:33N 49°09' W 123°00'2 1.7
2014-Apr-18 18:33N 49°09' W 123°03'5 4.7
2014-Apr-18 17:33N 49°07' W 123°09'4 4.5
2014-Apr-18 16:33N 49°07' W 123°16'4 4.2
2014-Apr-18 15:33N 49°03' W 123°18'5 5.0
2014-Apr-18 14:33N 49°00' W 123°13'5 4.8
2014-Apr-18 13:33N 48°57' W 123°07'5 5.0
2014-Apr-18 12:33N 48°53' W 123°01'7 6.6
2014-Apr-18 11:33N 48°49' W 122°54'7 7.4
2014-Apr-18 10:33N 48°45' W 122°45'7 6.7
2014-Apr-18 09:33N 48°38' W 122°44'6 6.2
2014-Apr-18 08:33N 48°32' W 122°44'6 6.2
2014-Apr-18 07:33N 48°26' W 122°44'6 6.2
2014-Apr-18 06:31N 48°19' W 122°46'11 5.6
2014-Apr-18 04:30N 48°08' W 122°41'6 6.4
2014-Apr-18 03:32N 48°03' W 122°38'4 7.6
2014-Apr-18 02:59N 47°59' W 122°35'3 8.2
2014-Apr-18 02:33N 47°57' W 122°31'1 7.4
2014-Apr-18 02:28N 47°56' W 122°30'7 7.5
2014-Apr-18 01:33N 47°50' W 122°27'1 8.5
2014-Apr-18 01:29N 47°49' W 122°27'8 8.3
2014-Apr-18 00:33N 47°42' W 122°27'1 7.5
2014-Apr-18 00:29N 47°41' W 122°27'6 6.8
2014-Apr-17 23:32N 47°36' W 122°22'0 1.0
2014-Apr-17 23:18N 47°35' W 122°22'  
2014-Apr-13 00:20N 47°33' W 122°21'2 2.5
2014-Apr-12 23:33N 47°35' W 122°22'5 5.0
2014-Apr-12 22:33N 47°38' W 122°27'8 7.9
2014-Apr-12 21:34N 47°46' W 122°27'5 7.8
2014-Apr-12 20:52N 47°51' W 122°29'3 8.4
2014-Apr-12 20:33N 47°54' W 122°30'0 7.2
2014-Apr-12 20:32N 47°54' W 122°30'8 8.3
2014-Apr-12 19:33N 48°00' W 122°38'9 8.2
2014-Apr-12 18:29N 48°08' W 122°43'7 7.2
2014-Apr-12 17:28N 48°15' W 122°49'  

Dump ship's entire track history

sailing weather and tide predictions

M. Luther — WDC7372 — position and weather